EGSSEDDW

Guest
Details From EGSS - London Stansted
To EDDW - Bremen
Flight Number -
Tags decoded
Created
Modified
Stats Distance 320 nm / 593 km
Max Altitude 0 ft / 0 m
Waypoints 2
Social Downloads 14
Likes 0
Share VATSIM

Download

Looking for another format? Having issues loading an existing format? Contact us
Advertisement - Login to hide

Notes

Requested: EGSS CLN8R EDDW Unmatched points: CLN8R

Route

EGSS EDDW

ID Type Via Altitude Latitude Longitude Leg Dist Tot Dist Heading (true) Name
O EGSS APT - 0 ft / 0 m 51.88510˚ 0.23496˚ - 0 nm - London Stansted
O EDDW APT - 0 ft / 0 m 53.04571˚ 8.78900˚ 320 nm 320 nm 74° / 81° Bremen

Altitude Profile

Advertisement - Login to hide

Weather


0- 5 10 15 20 25 30 35+ Temperature / ° C

Clouds and Precipitation
Forecast for 2018-06-25 12:00 UTC. Updated 40 minutes ago

Ground ~20,000 ft ~40,000 ft Winds

EGSS

Details ICAO EGSS (STN)
Name London Stansted
Region United Kingdom
Timezone Europe/London (UTC+1.0)
Stats Elevation 348 ft / 106 m (AMSL)
Location 51.885097° 0.234962°
Runways 1
Magnetic Variation 0.285° W

METAR

EGSS 251020Z AUTO VRB04KT 9999 NCD 25/09 Q1026

Decode

TAF

TAF EGSS 250502Z 2506/2612 22004KT CAVOK BECMG 2523/2602 7000 BECMG 2602/2605 3000 BR BKN003 BECMG 2606/2608 7000 NSW BKN008 BECMG 2608/2610 9999 FEW020

Decode

Departure Runways

ID Width Length Bearing (true) Bearing (mag) Surface Threshold Offset Overrun Length
04 151 ft / 46 m 10,011 ft / 3,052 m 42.79° 43.07° Asphalt 994 ft / 303 m 0 ft / 0 m
22 151 ft / 46 m 10,011 ft / 3,052 m 222.81° 223.09° Asphalt 0 ft / 0 m 0 ft / 0 m

EDDW

Details ICAO EDDW (BRE)
Name Bremen
Region Germany - Civil
Timezone Europe/Berlin (UTC+2.0)
Stats Elevation 14 ft / 4 m (AMSL)
Location 53.045715° 8.789003°
Runways 2
Magnetic Variation 2.478° E

METAR

EDDW 251020Z 32012KT 290V350 9999 FEW019 BKN023 16/10 Q1023 NOSIG

Decode

TAF

TAF EDDW 250500Z 2506/2606 29006KT 9999 BKN012 BECMG 2506/2509 31011KT BKN020 BECMG 2520/2522 29005KT BECMG 2522/2601 BKN010 TEMPO 2600/2606 BKN008

Decode

Destination Runways

ID Width Length Bearing (true) Bearing (mag) Surface Threshold Offset Overrun Length
05 75 ft / 23 m 2,298 ft / 700 m 51.18° 48.70° Asphalt 0 ft / 0 m 0 ft / 0 m
09 151 ft / 46 m 8,616 ft / 2,626 m 87.78° 85.30° Asphalt 945 ft / 288 m 0 ft / 0 m
23 75 ft / 23 m 2,298 ft / 700 m 231.19° 228.71° Asphalt 0 ft / 0 m 0 ft / 0 m
27 151 ft / 46 m 8,616 ft / 2,626 m 267.82° 265.34° Asphalt 984 ft / 300 m 0 ft / 0 m

Approach Navaids

Runway Type Ident Frequency Range Bearing (true) Bearing (mag) Slope Elevation
09 Localiser IBRE 110.30 MHz 18 nm / 33 km 87.77° 85.29° - 13 ft / 4 m (AMSL)
09 Glidescope IBRE 110.30 MHz 10 nm / 19 km 87.80° 85.32° 3.00° 13 ft / 4 m (AMSL)
27 Localiser IBRW 110.90 MHz 18 nm / 33 km 267.87° 265.39° - 14 ft / 4 m (AMSL)
27 Glidescope IBRW 110.90 MHz 10 nm / 19 km 267.80° 265.32° 3.00° 14 ft / 4 m (AMSL)

Popular Alternatives